Launceston Airport, Tasmania

4:11 AM AEST on September 02, 2015 (GMT +1000)
Youngtown | | Change Station
CLOSE
Current Station
Personal Weather Station
Location: Youngtown, TASMANIA
Elevation: 226 ft
Nearby Weather Stations

Elev 226 ft 41.49 °S, 147.18 °E | Updated 37 seconds ago

Overcast
Overcast
34.3 °F
Feels Like 34 °F
N
0.0
Wind Variable Wind from SE
Gusts 0.0 mph

Today
High -- | Low -- °F
--% Chance of Precip.
Yesterday
High -- | Low -- °F
Precip. -- in
6:35 AM 5:47 PM
Waning Gibbous, 87% visible
Pressure 29.92 in
Visibility 0.0 miles
Clouds Overcast 100 ft
Windchill 34 °F
Dew Point 32 °F
Humidity 93%
Rainfall 0.00 in
Snow Depth Not available.
UV 0 out of 12
Pollen Not available.
Air Quality Not available.
Flu Activity Not available.
SPECI YMLT 011800Z AUTO 35003KT 0050 // OVC001 01/01 Q1013 RMK AUTO OBSCURATION CODES REMOVED
Pressure 29.92 in
Visibility 0.0 miles
Clouds Overcast 100 ft
Windchill 34 °F
Dew Point 32 °F
Humidity 93%
Rainfall 0.00 in
Snow Depth Not available.
UV 0 out of 12
Pollen Not available.
Air Quality Not available.
Flu Activity Not available.
SPECI YMLT 011800Z AUTO 35003KT 0050 // OVC001 01/01 Q1013 RMK AUTO OBSCURATION CODES REMOVED

10-Day Weather Forecast

×

Almanac

Astronomy

Sep. 02, 2015 Rise Set
Actual Time
Civil Twilight
Nautical Twilight
Astronomical Twilight
Moon
Length of Visible Light
Length of Day
Tomorrow will be .
, % of the Moon is Illuminated

Today's Extremes

Country Highs Country Lows

Community

WunderPhotos

Upload Photos

1,851,592 photos uploaded!

WunderBlogs® & News

Nearby

Air Quality

  Air Quality AQ Index Pollutant
Not available.

Snow Depth

Station Depth Elevation

Earthquake Activity

City Distance Mag. Time & Date
Minimum magnitude displayed is 2.5.

Coastal Water Temperatures

Place Temperature

Stations

Nearby Weather Stations

Station Location Temp. Windchill Dew Point Humidity Wind Precip. Elev Updated Type